sensor_id;sensor_type;location;lat;lon;timestamp;temperature;humidity
60723;DHT22;46574;52.818;6.516;2022-08-05T00:00:17;18.90;99.90
60723;DHT22;46574;52.818;6.516;2022-08-05T00:02:43;18.80;99.90
60723;DHT22;46574;52.818;6.516;2022-08-05T00:05:09;18.80;99.90
60723;DHT22;46574;52.818;6.516;2022-08-05T00:07:34;18.70;99.90
60723;DHT22;46574;52.818;6.516;2022-08-05T00:10:00;18.70;99.90
60723;DHT22;46574;52.818;6.516;2022-08-05T00:12:25;18.70;99.90
60723;DHT22;46574;52.818;6.516;2022-08-05T00:14:51;18.70;99.90
60723;DHT22;46574;52.818;6.516;2022-08-05T00:17:16;18.70;99.90
60723;DHT22;46574;52.818;6.516;2022-08-05T00:19:42;18.80;99.90
60723;DHT22;46574;52.818;6.516;2022-08-05T00:22:07;18.80;99.90
60723;DHT22;46574;52.818;6.516;2022-08-05T00:24:33;18.70;99.90
60723;DHT22;46574;52.818;6.516;2022-08-05T00:26:59;18.70;99.90
60723;DHT22;46574;52.818;6.516;2022-08-05T00:29:25;18.70;99.90
60723;DHT22;46574;52.818;6.516;2022-08-05T00:31:50;18.80;99.90
60723;DHT22;46574;52.818;6.516;2022-08-05T00:34:16;18.70;99.90
60723;DHT22;46574;52.818;6.516;2022-08-05T00:36:41;18.80;99.90
60723;DHT22;46574;52.818;6.516;2022-08-05T00:39:07;18.80;99.90
60723;DHT22;46574;52.818;6.516;2022-08-05T00:41:34;18.80;99.90
60723;DHT22;46574;52.818;6.516;2022-08-05T00:44:00;18.70;99.90
60723;DHT22;46574;52.818;6.516;2022-08-05T00:46:25;18.80;99.90
60723;DHT22;46574;52.818;6.516;2022-08-05T00:48:51;18.80;99.90
60723;DHT22;46574;52.818;6.516;2022-08-05T00:51:17;18.80;99.90
60723;DHT22;46574;52.818;6.516;2022-08-05T00:53:43;18.80;99.90
60723;DHT22;46574;52.818;6.516;2022-08-05T00:56:08;18.80;99.90
60723;DHT22;46574;52.818;6.516;2022-08-05T00:58:34;18.80;99.90
60723;DHT22;46574;52.818;6.516;2022-08-05T01:01:00;18.80;99.90
60723;DHT22;46574;52.818;6.516;2022-08-05T01:03:25;18.90;99.90
60723;DHT22;46574;52.818;6.516;2022-08-05T01:05:51;18.90;99.90
60723;DHT22;46574;52.818;6.516;2022-08-05T01:08:17;18.90;99.90
60723;DHT22;46574;52.818;6.516;2022-08-05T01:10:56;18.80;99.90
60723;DHT22;46574;52.818;6.516;2022-08-05T01:13:31;18.80;99.90
60723;DHT22;46574;52.818;6.516;2022-08-05T01:15:59;18.80;99.90
60723;DHT22;46574;52.818;6.516;2022-08-05T01:18:28;18.70;99.90
60723;DHT22;46574;52.818;6.516;2022-08-05T01:23:36;18.70;99.90
60723;DHT22;46574;52.818;6.516;2022-08-05T01:26:12;18.70;99.90
60723;DHT22;46574;52.818;6.516;2022-08-05T01:28:44;18.70;99.90
60723;DHT22;46574;52.818;6.516;2022-08-05T01:31:14;18.70;99.90
60723;DHT22;46574;52.818;6.516;2022-08-05T01:33:42;18.60;99.90
60723;DHT22;46574;52.818;6.516;2022-08-05T01:36:10;18.50;99.90
60723;DHT22;46574;52.818;6.516;2022-08-05T01:38:37;18.50;99.90
60723;DHT22;46574;52.818;6.516;2022-08-05T01:41:04;18.50;99.90
60723;DHT22;46574;52.818;6.516;2022-08-05T01:43:30;18.40;99.90
60723;DHT22;46574;52.818;6.516;2022-08-05T01:45:56;18.40;99.90
60723;DHT22;46574;52.818;6.516;2022-08-05T01:48:24;18.40;99.90
60723;DHT22;46574;52.818;6.516;2022-08-05T01:50:50;18.30;99.90
60723;DHT22;46574;52.818;6.516;2022-08-05T01:53:16;18.30;99.90
60723;DHT22;46574;52.818;6.516;2022-08-05T01:55:43;18.30;99.90
60723;DHT22;46574;52.818;6.516;2022-08-05T01:58:09;18.30;99.90
60723;DHT22;46574;52.818;6.516;2022-08-05T02:00:38;18.30;99.90
60723;DHT22;46574;52.818;6.516;2022-08-05T02:03:08;18.20;99.90
60723;DHT22;46574;52.818;6.516;2022-08-05T02:05:35;18.20;99.90
60723;DHT22;46574;52.818;6.516;2022-08-05T02:08:01;18.20;99.90
60723;DHT22;46574;52.818;6.516;2022-08-05T02:10:28;18.20;99.90
60723;DHT22;46574;52.818;6.516;2022-08-05T02:16:00;18.20;99.90
60723;DHT22;46574;52.818;6.516;2022-08-05T02:18:39;18.30;99.90
60723;DHT22;46574;52.818;6.516;2022-08-05T02:21:11;18.30;99.90
60723;DHT22;46574;52.818;6.516;2022-08-05T02:23:38;18.30;99.90
60723;DHT22;46574;52.818;6.516;2022-08-05T02:26:05;18.30;99.90
60723;DHT22;46574;52.818;6.516;2022-08-05T02:28:32;18.20;99.90
60723;DHT22;46574;52.818;6.516;2022-08-05T02:31:02;18.20;99.90
60723;DHT22;46574;52.818;6.516;2022-08-05T02:33:31;18.20;99.90
60723;DHT22;46574;52.818;6.516;2022-08-05T02:35:59;18.20;99.90
60723;DHT22;46574;52.818;6.516;2022-08-05T02:38:27;18.20;99.90
60723;DHT22;46574;52.818;6.516;2022-08-05T02:40:53;18.10;99.90
60723;DHT22;46574;52.818;6.516;2022-08-05T02:43:19;18.10;99.90
60723;DHT22;46574;52.818;6.516;2022-08-05T02:45:46;18.00;99.90
60723;DHT22;46574;52.818;6.516;2022-08-05T02:48:12;18.00;99.90
60723;DHT22;46574;52.818;6.516;2022-08-05T02:50:38;18.00;99.90
60723;DHT22;46574;52.818;6.516;2022-08-05T02:53:06;18.00;99.90
60723;DHT22;46574;52.818;6.516;2022-08-05T02:55:32;18.00;99.90
60723;DHT22;46574;52.818;6.516;2022-08-05T02:57:58;18.00;99.90
60723;DHT22;46574;52.818;6.516;2022-08-05T03:00:24;17.90;99.90
60723;DHT22;46574;52.818;6.516;2022-08-05T03:02:49;17.90;99.90
60723;DHT22;46574;52.818;6.516;2022-08-05T03:05:16;17.90;99.90
60723;DHT22;46574;52.818;6.516;2022-08-05T03:07:42;17.90;99.90
60723;DHT22;46574;52.818;6.516;2022-08-05T03:10:08;17.90;99.90
60723;DHT22;46574;52.818;6.516;2022-08-05T03:12:35;17.80;99.90
60723;DHT22;46574;52.818;6.516;2022-08-05T03:15:05;17.80;99.90
60723;DHT22;46574;52.818;6.516;2022-08-05T03:17:32;17.80;99.90
60723;DHT22;46574;52.818;6.516;2022-08-05T03:19:58;17.80;99.90
60723;DHT22;46574;52.818;6.516;2022-08-05T03:22:23;17.80;99.90
60723;DHT22;46574;52.818;6.516;2022-08-05T03:24:49;17.80;99.90
60723;DHT22;46574;52.818;6.516;2022-08-05T03:27:15;17.80;99.90
60723;DHT22;46574;52.818;6.516;2022-08-05T03:29:41;17.80;99.90
60723;DHT22;46574;52.818;6.516;2022-08-05T03:32:07;17.80;99.90
60723;DHT22;46574;52.818;6.516;2022-08-05T03:34:33;17.90;99.90
60723;DHT22;46574;52.818;6.516;2022-08-05T03:36:59;17.90;99.90
60723;DHT22;46574;52.818;6.516;2022-08-05T03:39:25;17.90;99.90
60723;DHT22;46574;52.818;6.516;2022-08-05T03:41:50;17.90;99.90
60723;DHT22;46574;52.818;6.516;2022-08-05T03:44:16;17.90;99.90
60723;DHT22;46574;52.818;6.516;2022-08-05T03:46:41;17.90;99.90
60723;DHT22;46574;52.818;6.516;2022-08-05T03:49:07;17.80;99.90
60723;DHT22;46574;52.818;6.516;2022-08-05T03:51:42;17.80;99.90
60723;DHT22;46574;52.818;6.516;2022-08-05T03:57:02;17.80;99.90
60723;DHT22;46574;52.818;6.516;2022-08-05T03:59:42;17.70;99.90
60723;DHT22;46574;52.818;6.516;2022-08-05T04:02:09;17.70;99.90
60723;DHT22;46574;52.818;6.516;2022-08-05T04:04:35;17.70;99.90
60723;DHT22;46574;52.818;6.516;2022-08-05T04:07:01;17.70;99.90
60723;DHT22;46574;52.818;6.516;2022-08-05T04:09:28;17.70;99.90
60723;DHT22;46574;52.818;6.516;2022-08-05T04:11:54;17.70;99.90
60723;DHT22;46574;52.818;6.516;2022-08-05T04:14:20;17.60;99.90
60723;DHT22;46574;52.818;6.516;2022-08-05T04:16:46;17.60;99.90
60723;DHT22;46574;52.818;6.516;2022-08-05T04:19:12;17.60;99.90
60723;DHT22;46574;52.818;6.516;2022-08-05T04:21:38;17.60;99.90
60723;DHT22;46574;52.818;6.516;2022-08-05T04:24:03;17.60;99.90
60723;DHT22;46574;52.818;6.516;2022-08-05T04:26:29;17.60;99.90
60723;DHT22;46574;52.818;6.516;2022-08-05T04:28:55;17.60;99.90
60723;DHT22;46574;52.818;6.516;2022-08-05T04:31:21;17.60;99.90
60723;DHT22;46574;52.818;6.516;2022-08-05T04:33:46;17.60;99.90
60723;DHT22;46574;52.818;6.516;2022-08-05T04:36:12;17.60;99.90
60723;DHT22;46574;52.818;6.516;2022-08-05T04:38:41;17.60;99.90
60723;DHT22;46574;52.818;6.516;2022-08-05T04:41:06;17.60;99.90
60723;DHT22;46574;52.818;6.516;2022-08-05T04:43:32;17.60;99.90
60723;DHT22;46574;52.818;6.516;2022-08-05T04:45:57;17.50;99.90
60723;DHT22;46574;52.818;6.516;2022-08-05T04:48:23;17.50;99.90
60723;DHT22;46574;52.818;6.516;2022-08-05T04:50:48;17.50;99.90
60723;DHT22;46574;52.818;6.516;2022-08-05T04:53:15;17.50;99.90
60723;DHT22;46574;52.818;6.516;2022-08-05T04:55:41;17.50;99.90
60723;DHT22;46574;52.818;6.516;2022-08-05T04:58:07;17.50;99.90
60723;DHT22;46574;52.818;6.516;2022-08-05T05:00:33;17.50;99.90
60723;DHT22;46574;52.818;6.516;2022-08-05T05:02:59;17.50;99.90
60723;DHT22;46574;52.818;6.516;2022-08-05T05:05:25;17.50;99.90
60723;DHT22;46574;52.818;6.516;2022-08-05T05:07:50;17.40;99.90
60723;DHT22;46574;52.818;6.516;2022-08-05T05:10:16;17.40;99.90
60723;DHT22;46574;52.818;6.516;2022-08-05T05:12:41;17.40;99.90
60723;DHT22;46574;52.818;6.516;2022-08-05T05:15:07;17.40;99.90
60723;DHT22;46574;52.818;6.516;2022-08-05T05:17:39;17.40;99.90
60723;DHT22;46574;52.818;6.516;2022-08-05T05:20:06;17.40;99.90
60723;DHT22;46574;52.818;6.516;2022-08-05T05:22:32;17.40;99.90
60723;DHT22;46574;52.818;6.516;2022-08-05T05:24:57;17.40;99.90
60723;DHT22;46574;52.818;6.516;2022-08-05T05:27:23;17.40;99.90
60723;DHT22;46574;52.818;6.516;2022-08-05T05:29:48;17.40;99.90
60723;DHT22;46574;52.818;6.516;2022-08-05T05:32:14;17.40;99.90
60723;DHT22;46574;52.818;6.516;2022-08-05T05:34:39;17.40;99.90
60723;DHT22;46574;52.818;6.516;2022-08-05T05:37:05;17.40;99.90
60723;DHT22;46574;52.818;6.516;2022-08-05T05:39:30;17.30;99.90
60723;DHT22;46574;52.818;6.516;2022-08-05T05:41:56;17.40;99.90
60723;DHT22;46574;52.818;6.516;2022-08-05T05:44:21;17.40;99.90
60723;DHT22;46574;52.818;6.516;2022-08-05T05:46:47;17.40;99.90
60723;DHT22;46574;52.818;6.516;2022-08-05T05:49:12;17.40;99.90
60723;DHT22;46574;52.818;6.516;2022-08-05T05:51:38;17.30;99.90
60723;DHT22;46574;52.818;6.516;2022-08-05T05:54:04;17.30;99.90
60723;DHT22;46574;52.818;6.516;2022-08-05T05:58:40;17.30;99.90
60723;DHT22;46574;52.818;6.516;2022-08-05T06:01:05;17.40;99.90
60723;DHT22;46574;52.818;6.516;2022-08-05T06:03:31;17.40;99.90
60723;DHT22;46574;52.818;6.516;2022-08-05T06:05:57;17.40;99.90
60723;DHT22;46574;52.818;6.516;2022-08-05T06:08:22;17.50;99.90
60723;DHT22;46574;52.818;6.516;2022-08-05T06:10:48;17.60;99.90
60723;DHT22;46574;52.818;6.516;2022-08-05T06:13:13;17.60;99.90
60723;DHT22;46574;52.818;6.516;2022-08-05T06:15:39;17.70;99.90
60723;DHT22;46574;52.818;6.516;2022-08-05T06:18:05;17.80;99.90
60723;DHT22;46574;52.818;6.516;2022-08-05T06:20:30;17.90;99.90
60723;DHT22;46574;52.818;6.516;2022-08-05T06:22:57;18.00;99.90
60723;DHT22;46574;52.818;6.516;2022-08-05T06:25:23;17.90;99.90
60723;DHT22;46574;52.818;6.516;2022-08-05T06:27:49;17.90;99.90
60723;DHT22;46574;52.818;6.516;2022-08-05T06:30:14;17.90;99.90
60723;DHT22;46574;52.818;6.516;2022-08-05T06:32:41;17.90;99.90
60723;DHT22;46574;52.818;6.516;2022-08-05T06:35:08;17.90;99.90
60723;DHT22;46574;52.818;6.516;2022-08-05T06:37:33;18.00;99.90
60723;DHT22;46574;52.818;6.516;2022-08-05T06:39:59;18.00;99.90
60723;DHT22;46574;52.818;6.516;2022-08-05T06:42:25;18.00;99.90
60723;DHT22;46574;52.818;6.516;2022-08-05T06:44:50;18.10;99.90
60723;DHT22;46574;52.818;6.516;2022-08-05T06:47:16;18.10;99.90
60723;DHT22;46574;52.818;6.516;2022-08-05T06:49:41;18.10;99.90
60723;DHT22;46574;52.818;6.516;2022-08-05T06:52:07;18.20;99.90
60723;DHT22;46574;52.818;6.516;2022-08-05T06:54:33;18.20;99.90
60723;DHT22;46574;52.818;6.516;2022-08-05T06:56:58;18.30;99.90
60723;DHT22;46574;52.818;6.516;2022-08-05T06:59:24;18.30;99.90
60723;DHT22;46574;52.818;6.516;2022-08-05T07:01:50;18.40;99.90
60723;DHT22;46574;52.818;6.516;2022-08-05T07:04:15;18.50;99.90
60723;DHT22;46574;52.818;6.516;2022-08-05T07:06:41;18.50;99.90
60723;DHT22;46574;52.818;6.516;2022-08-05T07:09:07;18.60;99.90
60723;DHT22;46574;52.818;6.516;2022-08-05T07:11:33;18.60;99.90
60723;DHT22;46574;52.818;6.516;2022-08-05T07:13:59;18.60;99.90
60723;DHT22;46574;52.818;6.516;2022-08-05T07:16:43;18.70;99.90
60723;DHT22;46574;52.818;6.516;2022-08-05T07:19:19;18.80;99.90
60723;DHT22;46574;52.818;6.516;2022-08-05T07:21:47;18.90;99.90
60723;DHT22;46574;52.818;6.516;2022-08-05T07:24:13;18.90;99.90
60723;DHT22;46574;52.818;6.516;2022-08-05T07:26:39;19.00;99.90
60723;DHT22;46574;52.818;6.516;2022-08-05T07:29:05;19.10;99.90
60723;DHT22;46574;52.818;6.516;2022-08-05T07:31:32;19.10;99.90
60723;DHT22;46574;52.818;6.516;2022-08-05T07:33:57;19.20;99.90
60723;DHT22;46574;52.818;6.516;2022-08-05T07:36:23;19.20;99.90
60723;DHT22;46574;52.818;6.516;2022-08-05T07:38:50;19.20;99.90
60723;DHT22;46574;52.818;6.516;2022-08-05T07:41:17;19.40;99.90
60723;DHT22;46574;52.818;6.516;2022-08-05T07:43:43;19.60;99.90
60723;DHT22;46574;52.818;6.516;2022-08-05T07:46:09;19.90;99.90
60723;DHT22;46574;52.818;6.516;2022-08-05T07:48:34;19.90;99.90
60723;DHT22;46574;52.818;6.516;2022-08-05T07:51:00;20.00;99.90
60723;DHT22;46574;52.818;6.516;2022-08-05T07:53:26;19.90;99.90
60723;DHT22;46574;52.818;6.516;2022-08-05T07:55:51;19.80;99.90
60723;DHT22;46574;52.818;6.516;2022-08-05T07:58:17;19.80;99.90
60723;DHT22;46574;52.818;6.516;2022-08-05T08:00:43;19.90;99.90
60723;DHT22;46574;52.818;6.516;2022-08-05T08:03:10;19.90;99.90
60723;DHT22;46574;52.818;6.516;2022-08-05T08:05:36;19.90;99.90
60723;DHT22;46574;52.818;6.516;2022-08-05T08:08:02;20.00;99.90
60723;DHT22;46574;52.818;6.516;2022-08-05T08:10:29;20.10;99.90
60723;DHT22;46574;52.818;6.516;2022-08-05T08:12:54;20.10;99.90
60723;DHT22;46574;52.818;6.516;2022-08-05T08:15:20;20.10;99.90
60723;DHT22;46574;52.818;6.516;2022-08-05T08:17:46;20.10;99.90
60723;DHT22;46574;52.818;6.516;2022-08-05T08:20:12;20.10;99.90
60723;DHT22;46574;52.818;6.516;2022-08-05T08:22:37;20.10;99.90
60723;DHT22;46574;52.818;6.516;2022-08-05T08:25:04;20.10;99.90
60723;DHT22;46574;52.818;6.516;2022-08-05T08:27:30;20.10;99.90
60723;DHT22;46574;52.818;6.516;2022-08-05T08:29:56;20.00;99.90
60723;DHT22;46574;52.818;6.516;2022-08-05T08:32:22;20.10;99.90
60723;DHT22;46574;52.818;6.516;2022-08-05T08:34:48;20.10;99.90
60723;DHT22;46574;52.818;6.516;2022-08-05T08:37:14;20.30;99.90
60723;DHT22;46574;52.818;6.516;2022-08-05T08:39:39;20.30;99.90
60723;DHT22;46574;52.818;6.516;2022-08-05T08:42:07;20.20;99.90
60723;DHT22;46574;52.818;6.516;2022-08-05T08:44:35;20.20;99.90
60723;DHT22;46574;52.818;6.516;2022-08-05T08:47:06;20.20;99.90
60723;DHT22;46574;52.818;6.516;2022-08-05T08:49:34;20.20;99.90
60723;DHT22;46574;52.818;6.516;2022-08-05T08:52:11;20.30;99.90
60723;DHT22;46574;52.818;6.516;2022-08-05T08:54:37;20.50;99.90
60723;DHT22;46574;52.818;6.516;2022-08-05T08:57:05;20.50;99.90
60723;DHT22;46574;52.818;6.516;2022-08-05T08:59:31;20.50;99.90
60723;DHT22;46574;52.818;6.516;2022-08-05T09:01:57;20.50;99.90
60723;DHT22;46574;52.818;6.516;2022-08-05T09:04:23;20.80;99.90
60723;DHT22;46574;52.818;6.516;2022-08-05T09:06:49;21.00;99.90
60723;DHT22;46574;52.818;6.516;2022-08-05T09:09:15;21.00;99.90
60723;DHT22;46574;52.818;6.516;2022-08-05T09:11:41;21.30;99.90
60723;DHT22;46574;52.818;6.516;2022-08-05T09:14:07;21.80;99.90
60723;DHT22;46574;52.818;6.516;2022-08-05T09:16:32;21.90;99.90
60723;DHT22;46574;52.818;6.516;2022-08-05T09:18:58;21.90;99.90
60723;DHT22;46574;52.818;6.516;2022-08-05T09:21:24;21.70;99.90
60723;DHT22;46574;52.818;6.516;2022-08-05T09:24:04;21.80;93.30
60723;DHT22;46574;52.818;6.516;2022-08-05T09:26:30;21.60;99.90
60723;DHT22;46574;52.818;6.516;2022-08-05T09:29:00;21.70;99.90
60723;DHT22;46574;52.818;6.516;2022-08-05T09:31:29;21.50;99.90
60723;DHT22;46574;52.818;6.516;2022-08-05T09:33:58;21.30;93.20
60723;DHT22;46574;52.818;6.516;2022-08-05T09:36:46;21.10;76.80
60723;DHT22;46574;52.818;6.516;2022-08-05T09:39:15;21.10;78.60
60723;DHT22;46574;52.818;6.516;2022-08-05T09:42:02;21.30;92.50
60723;DHT22;46574;52.818;6.516;2022-08-05T09:44:37;21.50;87.80
60723;DHT22;46574;52.818;6.516;2022-08-05T09:47:11;21.50;81.30
60723;DHT22;46574;52.818;6.516;2022-08-05T09:49:43;21.60;71.50
60723;DHT22;46574;52.818;6.516;2022-08-05T09:52:28;21.70;69.10
60723;DHT22;46574;52.818;6.516;2022-08-05T09:57:44;22.00;69.00
60723;DHT22;46574;52.818;6.516;2022-08-05T10:00:20;22.10;62.50
60723;DHT22;46574;52.818;6.516;2022-08-05T10:02:52;22.10;65.50
60723;DHT22;46574;52.818;6.516;2022-08-05T10:05:28;21.90;67.20
60723;DHT22;46574;52.818;6.516;2022-08-05T10:10:31;21.90;67.20
60723;DHT22;46574;52.818;6.516;2022-08-05T10:13:01;22.20;65.80
60723;DHT22;46574;52.818;6.516;2022-08-05T10:15:32;22.20;55.40
60723;DHT22;46574;52.818;6.516;2022-08-05T10:20:31;22.40;51.30
60723;DHT22;46574;52.818;6.516;2022-08-05T10:22:57;22.40;53.30
60723;DHT22;46574;52.818;6.516;2022-08-05T10:25:23;22.40;56.30
60723;DHT22;46574;52.818;6.516;2022-08-05T10:27:48;22.50;57.20
60723;DHT22;46574;52.818;6.516;2022-08-05T10:30:14;22.50;59.00
60723;DHT22;46574;52.818;6.516;2022-08-05T10:32:40;22.40;59.80
60723;DHT22;46574;52.818;6.516;2022-08-05T10:35:06;22.30;60.10
60723;DHT22;46574;52.818;6.516;2022-08-05T10:37:32;22.30;58.80
60723;DHT22;46574;52.818;6.516;2022-08-05T10:40:00;22.10;59.80
60723;DHT22;46574;52.818;6.516;2022-08-05T10:42:31;22.30;54.60
60723;DHT22;46574;52.818;6.516;2022-08-05T10:45:02;22.40;56.50
60723;DHT22;46574;52.818;6.516;2022-08-05T10:47:32;22.70;55.70
60723;DHT22;46574;52.818;6.516;2022-08-05T10:53:00;22.00;51.60
60723;DHT22;46574;52.818;6.516;2022-08-05T10:55:26;22.10;48.70
60723;DHT22;46574;52.818;6.516;2022-08-05T10:58:10;22.00;47.90
60723;DHT22;46574;52.818;6.516;2022-08-05T11:00:36;22.10;46.00
60723;DHT22;46574;52.818;6.516;2022-08-05T11:05:33;22.10;46.80
60723;DHT22;46574;52.818;6.516;2022-08-05T11:08:02;22.20;46.60
60723;DHT22;46574;52.818;6.516;2022-08-05T11:10:29;22.20;48.00
60723;DHT22;46574;52.818;6.516;2022-08-05T11:12:56;22.20;49.50
60723;DHT22;46574;52.818;6.516;2022-08-05T11:15:30;22.30;49.50
60723;DHT22;46574;52.818;6.516;2022-08-05T11:18:24;22.60;49.20
60723;DHT22;46574;52.818;6.516;2022-08-05T11:20:51;22.50;46.40
60723;DHT22;46574;52.818;6.516;2022-08-05T11:23:39;22.40;47.70
60723;DHT22;46574;52.818;6.516;2022-08-05T11:28:45;22.30;47.20
60723;DHT22;46574;52.818;6.516;2022-08-05T11:33:37;22.40;47.20
60723;DHT22;46574;52.818;6.516;2022-08-05T11:36:08;22.60;47.40
60723;DHT22;46574;52.818;6.516;2022-08-05T11:41:22;22.70;44.90
60723;DHT22;46574;52.818;6.516;2022-08-05T11:44:07;22.50;46.40
60723;DHT22;46574;52.818;6.516;2022-08-05T11:46:38;22.10;47.80
60723;DHT22;46574;52.818;6.516;2022-08-05T11:49:06;21.90;48.20
60723;DHT22;46574;52.818;6.516;2022-08-05T11:51:33;21.70;48.90
60723;DHT22;46574;52.818;6.516;2022-08-05T11:53:59;21.50;49.50
60723;DHT22;46574;52.818;6.516;2022-08-05T11:56:42;21.50;50.40
60723;DHT22;46574;52.818;6.516;2022-08-05T11:59:12;21.50;50.30
60723;DHT22;46574;52.818;6.516;2022-08-05T12:01:51;21.60;50.00
60723;DHT22;46574;52.818;6.516;2022-08-05T12:04:17;21.60;50.40
60723;DHT22;46574;52.818;6.516;2022-08-05T12:06:43;21.40;51.70
60723;DHT22;46574;52.818;6.516;2022-08-05T12:09:09;21.40;52.80
60723;DHT22;46574;52.818;6.516;2022-08-05T12:11:35;21.60;54.50
60723;DHT22;46574;52.818;6.516;2022-08-05T12:14:05;21.90;55.50
60723;DHT22;46574;52.818;6.516;2022-08-05T12:16:37;21.80;54.90
60723;DHT22;46574;52.818;6.516;2022-08-05T12:19:04;21.60;54.80
60723;DHT22;46574;52.818;6.516;2022-08-05T12:21:34;21.50;56.10
60723;DHT22;46574;52.818;6.516;2022-08-05T12:24:06;21.50;56.60
60723;DHT22;46574;52.818;6.516;2022-08-05T12:26:40;21.10;58.30
60723;DHT22;46574;52.818;6.516;2022-08-05T12:29:14;20.90;58.90
60723;DHT22;46574;52.818;6.516;2022-08-05T12:31:45;20.90;59.40
60723;DHT22;46574;52.818;6.516;2022-08-05T12:34:11;21.00;58.40
60723;DHT22;46574;52.818;6.516;2022-08-05T12:36:37;20.90;57.50
60723;DHT22;46574;52.818;6.516;2022-08-05T12:39:04;20.90;58.40
60723;DHT22;46574;52.818;6.516;2022-08-05T12:41:32;20.90;56.90
60723;DHT22;46574;52.818;6.516;2022-08-05T12:44:00;20.80;57.00
60723;DHT22;46574;52.818;6.516;2022-08-05T12:46:28;20.80;56.20
60723;DHT22;46574;52.818;6.516;2022-08-05T12:48:59;20.90;56.70
60723;DHT22;46574;52.818;6.516;2022-08-05T12:51:25;21.00;55.10
60723;DHT22;46574;52.818;6.516;2022-08-05T12:54:00;20.90;56.90
60723;DHT22;46574;52.818;6.516;2022-08-05T12:56:26;20.80;57.40
60723;DHT22;46574;52.818;6.516;2022-08-05T12:59:21;20.80;57.00
60723;DHT22;46574;52.818;6.516;2022-08-05T13:04:32;20.80;57.00
60723;DHT22;46574;52.818;6.516;2022-08-05T13:07:00;20.80;55.90
60723;DHT22;46574;52.818;6.516;2022-08-05T13:09:27;20.80;57.10
60723;DHT22;46574;52.818;6.516;2022-08-05T13:12:05;21.00;57.40
60723;DHT22;46574;52.818;6.516;2022-08-05T13:14:41;21.10;56.20
60723;DHT22;46574;52.818;6.516;2022-08-05T13:17:21;21.10;56.40
60723;DHT22;46574;52.818;6.516;2022-08-05T13:19:58;21.20;56.50
60723;DHT22;46574;52.818;6.516;2022-08-05T13:22:24;21.20;57.10
60723;DHT22;46574;52.818;6.516;2022-08-05T13:24:50;21.20;58.00
60723;DHT22;46574;52.818;6.516;2022-08-05T13:29:51;21.00;58.40
60723;DHT22;46574;52.818;6.516;2022-08-05T13:32:16;20.90;57.80
60723;DHT22;46574;52.818;6.516;2022-08-05T13:34:42;20.70;58.30
60723;DHT22;46574;52.818;6.516;2022-08-05T13:37:10;20.50;58.50
60723;DHT22;46574;52.818;6.516;2022-08-05T13:39:36;20.40;59.30
60723;DHT22;46574;52.818;6.516;2022-08-05T13:42:01;20.50;59.30
60723;DHT22;46574;52.818;6.516;2022-08-05T13:44:27;20.50;56.30
60723;DHT22;46574;52.818;6.516;2022-08-05T13:46:52;20.40;56.10
60723;DHT22;46574;52.818;6.516;2022-08-05T13:49:20;20.50;57.60
60723;DHT22;46574;52.818;6.516;2022-08-05T13:51:46;20.50;57.80
60723;DHT22;46574;52.818;6.516;2022-08-05T13:54:11;20.50;59.00
60723;DHT22;46574;52.818;6.516;2022-08-05T13:56:37;20.50;58.80
60723;DHT22;46574;52.818;6.516;2022-08-05T13:59:03;20.30;59.20
60723;DHT22;46574;52.818;6.516;2022-08-05T14:01:28;20.30;58.90
60723;DHT22;46574;52.818;6.516;2022-08-05T14:03:54;20.20;58.30
60723;DHT22;46574;52.818;6.516;2022-08-05T14:06:38;20.20;59.00
60723;DHT22;46574;52.818;6.516;2022-08-05T14:09:04;20.50;59.70
60723;DHT22;46574;52.818;6.516;2022-08-05T14:11:29;20.60;60.00
60723;DHT22;46574;52.818;6.516;2022-08-05T14:13:58;20.50;59.10
60723;DHT22;46574;52.818;6.516;2022-08-05T14:16:24;20.30;59.10
60723;DHT22;46574;52.818;6.516;2022-08-05T14:18:49;20.40;59.80
60723;DHT22;46574;52.818;6.516;2022-08-05T14:21:15;20.60;60.60
60723;DHT22;46574;52.818;6.516;2022-08-05T14:23:41;20.80;59.30
60723;DHT22;46574;52.818;6.516;2022-08-05T14:26:06;20.80;59.40
60723;DHT22;46574;52.818;6.516;2022-08-05T14:28:32;20.90;56.90
60723;DHT22;46574;52.818;6.516;2022-08-05T14:30:58;20.70;58.20
60723;DHT22;46574;52.818;6.516;2022-08-05T14:33:24;20.80;58.30
60723;DHT22;46574;52.818;6.516;2022-08-05T14:35:50;20.70;58.30
60723;DHT22;46574;52.818;6.516;2022-08-05T14:38:16;20.70;59.30
60723;DHT22;46574;52.818;6.516;2022-08-05T14:40:42;20.60;58.90
60723;DHT22;46574;52.818;6.516;2022-08-05T14:43:07;20.70;59.10
60723;DHT22;46574;52.818;6.516;2022-08-05T14:45:33;20.80;58.80
60723;DHT22;46574;52.818;6.516;2022-08-05T14:47:59;21.00;58.40
60723;DHT22;46574;52.818;6.516;2022-08-05T14:50:24;21.10;60.10
60723;DHT22;46574;52.818;6.516;2022-08-05T14:52:50;21.20;60.10
60723;DHT22;46574;52.818;6.516;2022-08-05T14:55:16;21.40;61.30
60723;DHT22;46574;52.818;6.516;2022-08-05T14:57:41;21.40;60.30
60723;DHT22;46574;52.818;6.516;2022-08-05T15:00:08;20.90;61.20
60723;DHT22;46574;52.818;6.516;2022-08-05T15:02:34;21.10;61.30
60723;DHT22;46574;52.818;6.516;2022-08-05T15:05:02;21.30;59.90
60723;DHT22;46574;52.818;6.516;2022-08-05T15:07:28;21.50;58.10
60723;DHT22;46574;52.818;6.516;2022-08-05T15:09:53;21.30;56.90
60723;DHT22;46574;52.818;6.516;2022-08-05T15:12:19;21.10;56.90
60723;DHT22;46574;52.818;6.516;2022-08-05T15:14:45;21.20;57.70
60723;DHT22;46574;52.818;6.516;2022-08-05T15:17:10;21.30;58.70
60723;DHT22;46574;52.818;6.516;2022-08-05T15:19:37;21.40;58.50
60723;DHT22;46574;52.818;6.516;2022-08-05T15:22:02;21.10;58.50
60723;DHT22;46574;52.818;6.516;2022-08-05T15:24:28;20.70;59.60
60723;DHT22;46574;52.818;6.516;2022-08-05T15:26:53;20.40;60.10
60723;DHT22;46574;52.818;6.516;2022-08-05T15:29:19;20.30;61.90
60723;DHT22;46574;52.818;6.516;2022-08-05T15:31:45;20.60;61.20
60723;DHT22;46574;52.818;6.516;2022-08-05T15:34:11;20.80;59.90
60723;DHT22;46574;52.818;6.516;2022-08-05T15:36:36;20.90;60.10
60723;DHT22;46574;52.818;6.516;2022-08-05T15:39:02;21.20;60.50
60723;DHT22;46574;52.818;6.516;2022-08-05T15:41:28;20.90;60.60
60723;DHT22;46574;52.818;6.516;2022-08-05T15:43:54;20.50;61.40
60723;DHT22;46574;52.818;6.516;2022-08-05T15:46:20;20.60;60.50
60723;DHT22;46574;52.818;6.516;2022-08-05T15:48:46;20.80;60.50
60723;DHT22;46574;52.818;6.516;2022-08-05T15:51:11;20.60;61.10
60723;DHT22;46574;52.818;6.516;2022-08-05T15:53:37;20.30;62.00
60723;DHT22;46574;52.818;6.516;2022-08-05T15:56:04;20.00;62.90
60723;DHT22;46574;52.818;6.516;2022-08-05T15:58:30;20.50;61.80
60723;DHT22;46574;52.818;6.516;2022-08-05T16:00:56;21.60;60.40
60723;DHT22;46574;52.818;6.516;2022-08-05T16:03:21;22.10;58.10
60723;DHT22;46574;52.818;6.516;2022-08-05T16:05:50;22.20;56.80
60723;DHT22;46574;52.818;6.516;2022-08-05T16:08:15;22.00;56.30